createdAt,value
2023-05-05T00:00:15.884Z,5.70
2023-05-05T00:02:44.254Z,5.80
2023-05-05T00:05:14.129Z,5.80
2023-05-05T00:07:42.438Z,5.80
2023-05-05T00:10:11.548Z,5.90
2023-05-05T00:12:39.862Z,5.90
2023-05-05T00:15:09.149Z,6.00
2023-05-05T00:17:37.380Z,6.00
2023-05-05T00:20:06.753Z,6.00
2023-05-05T00:22:37.121Z,6.10
2023-05-05T00:25:06.180Z,6.10
2023-05-05T00:27:34.388Z,6.10
2023-05-05T00:30:02.585Z,6.10
2023-05-05T00:32:30.806Z,6.00
2023-05-05T00:34:59.063Z,6.00
2023-05-05T00:37:27.196Z,6.00
2023-05-05T00:39:56.830Z,6.00
2023-05-05T00:42:25.114Z,6.00
2023-05-05T00:44:53.326Z,6.00
2023-05-05T00:47:21.704Z,5.90
2023-05-05T00:49:50.028Z,5.90
2023-05-05T00:52:18.207Z,6.00
2023-05-05T00:54:46.480Z,5.80
2023-05-05T00:57:16.100Z,5.70
2023-05-05T00:59:45.774Z,5.70
2023-05-05T01:02:14.038Z,5.60
2023-05-05T01:04:42.489Z,5.60
2023-05-05T01:07:22.800Z,5.50
2023-05-05T01:10:10.983Z,5.50
2023-05-05T01:12:49.294Z,5.40
2023-05-05T01:15:23.827Z,5.40
2023-05-05T01:18:00.768Z,5.40
2023-05-05T01:20:34.318Z,5.30
2023-05-05T01:23:08.556Z,5.30
2023-05-05T01:26:16.549Z,5.20
2023-05-05T01:29:08.046Z,5.20
2023-05-05T01:31:53.161Z,5.20
2023-05-05T01:34:27.378Z,5.20
2023-05-05T01:37:01.408Z,5.20
2023-05-05T01:39:34.505Z,5.30
2023-05-05T01:42:07.844Z,5.30
2023-05-05T01:44:38.999Z,5.30
2023-05-05T01:47:11.070Z,5.30
2023-05-05T01:49:39.872Z,5.40
2023-05-05T01:52:10.132Z,5.50
2023-05-05T01:54:42.437Z,5.50
2023-05-05T01:57:18.004Z,5.50
2023-05-05T01:59:48.543Z,5.60
2023-05-05T02:02:20.196Z,5.60
2023-05-05T02:04:51.519Z,5.70
2023-05-05T02:07:23.784Z,5.70
2023-05-05T02:09:53.280Z,5.70
2023-05-05T02:12:22.847Z,5.70
2023-05-05T02:14:53.399Z,5.80
2023-05-05T02:17:24.362Z,5.70
2023-05-05T02:19:54.372Z,5.70
2023-05-05T02:22:22.637Z,5.60
2023-05-05T02:24:50.798Z,5.60
2023-05-05T02:27:22.796Z,5.60
2023-05-05T02:29:55.136Z,5.60
2023-05-05T02:32:31.806Z,5.70
2023-05-05T02:35:05.341Z,5.70
2023-05-05T02:37:36.544Z,5.80
2023-05-05T02:40:07.866Z,5.80
2023-05-05T02:42:39.862Z,5.80
2023-05-05T02:45:14.220Z,5.80
2023-05-05T02:47:47.583Z,5.80
2023-05-05T02:50:17.039Z,5.90
2023-05-05T02:52:54.696Z,5.90
2023-05-05T02:55:25.032Z,5.90
2023-05-05T02:58:01.478Z,5.90
2023-05-05T03:00:38.004Z,5.90
2023-05-05T03:03:16.387Z,6.00
2023-05-05T03:05:52.463Z,6.00
2023-05-05T03:08:29.376Z,6.00
2023-05-05T03:11:02.743Z,6.00
2023-05-05T03:13:33.351Z,6.00
2023-05-05T03:16:06.608Z,6.00
2023-05-05T03:18:38.692Z,6.00
2023-05-05T03:21:09.139Z,6.10
2023-05-05T03:23:40.951Z,6.10
2023-05-05T03:26:18.877Z,6.20
2023-05-05T03:28:48.196Z,6.20
2023-05-05T03:31:22.182Z,6.30
2023-05-05T03:33:56.480Z,6.40
2023-05-05T03:36:29.491Z,6.40
2023-05-05T03:38:59.965Z,6.50
2023-05-05T03:41:32.362Z,6.50
2023-05-05T03:44:01.288Z,6.60
2023-05-05T03:46:29.685Z,6.60
2023-05-05T03:48:59.326Z,6.60
2023-05-05T03:51:29.181Z,6.50
2023-05-05T03:53:58.192Z,6.50
2023-05-05T03:56:26.747Z,6.40
2023-05-05T03:58:55.006Z,6.40
2023-05-05T04:01:24.284Z,6.50
2023-05-05T04:03:52.965Z,6.50
2023-05-05T04:06:23.237Z,6.60
2023-05-05T04:08:55.355Z,6.70
2023-05-05T04:11:23.621Z,6.80
2023-05-05T04:13:52.233Z,6.90
2023-05-05T04:16:21.025Z,7.00
2023-05-05T04:18:49.466Z,7.10
2023-05-05T04:21:17.790Z,7.30
2023-05-05T04:23:47.931Z,7.50
2023-05-05T04:26:16.184Z,7.60
2023-05-05T04:28:44.345Z,7.90
2023-05-05T04:31:14.117Z,8.30
2023-05-05T04:33:44.070Z,8.50
2023-05-05T04:36:13.070Z,8.60
2023-05-05T04:38:42.736Z,8.80
2023-05-05T04:41:12.420Z,8.90
2023-05-05T04:43:43.078Z,9.10
2023-05-05T04:46:11.339Z,9.20
2023-05-05T04:48:39.882Z,9.30
2023-05-05T04:51:09.044Z,9.40
2023-05-05T04:53:38.372Z,9.50
2023-05-05T04:56:06.996Z,9.50
2023-05-05T04:58:36.681Z,9.50
2023-05-05T05:01:05.004Z,9.50
2023-05-05T05:03:33.350Z,9.60
2023-05-05T05:06:02.293Z,9.70
2023-05-05T05:08:30.440Z,9.90
2023-05-05T05:10:59.783Z,10.00
2023-05-05T05:13:28.440Z,10.10
2023-05-05T05:15:58.133Z,10.30
2023-05-05T05:18:26.529Z,10.30
2023-05-05T05:20:56.231Z,10.50
2023-05-05T05:23:25.032Z,10.60
2023-05-05T05:25:53.609Z,10.60
2023-05-05T05:28:25.074Z,10.70
2023-05-05T05:30:59.997Z,10.90
2023-05-05T05:33:28.192Z,11.00
2023-05-05T05:35:58.097Z,11.30
2023-05-05T05:38:27.333Z,11.50
2023-05-05T05:40:59.206Z,11.80
2023-05-05T05:43:27.517Z,12.10
2023-05-05T05:45:55.925Z,12.30
2023-05-05T05:48:28.558Z,12.30
2023-05-05T05:50:58.006Z,12.60
2023-05-05T05:53:29.839Z,12.80
2023-05-05T05:55:57.990Z,13.10
2023-05-05T05:58:26.219Z,13.30
2023-05-05T06:00:54.760Z,13.60
2023-05-05T06:03:23.270Z,13.80
2023-05-05T06:05:53.530Z,13.90
2023-05-05T06:08:24.269Z,14.30
2023-05-05T06:10:54.930Z,14.60
2023-05-05T06:13:23.201Z,14.90
2023-05-05T06:15:53.821Z,14.70
2023-05-05T06:18:22.207Z,14.70
2023-05-05T06:20:51.558Z,14.70
2023-05-05T06:23:23.119Z,14.70
2023-05-05T06:25:57.272Z,15.10
2023-05-05T06:28:25.706Z,15.60
2023-05-05T06:30:53.920Z,15.70
2023-05-05T06:33:22.212Z,16.10
2023-05-05T06:35:53.334Z,16.10
2023-05-05T06:38:24.242Z,16.50
2023-05-05T06:40:52.507Z,16.50
2023-05-05T06:43:22.305Z,16.30
2023-05-05T06:45:56.341Z,16.60
2023-05-05T06:48:26.128Z,16.30
2023-05-05T06:50:54.893Z,15.90
2023-05-05T06:53:24.686Z,16.00
2023-05-05T06:55:56.204Z,16.40
2023-05-05T06:58:24.748Z,16.80
2023-05-05T07:00:55.225Z,16.90
2023-05-05T07:03:28.989Z,17.60
2023-05-05T07:05:59.857Z,17.20
2023-05-05T07:08:29.776Z,17.00
2023-05-05T07:10:58.286Z,16.60
2023-05-05T07:13:26.684Z,16.30
2023-05-05T07:15:55.115Z,16.10
2023-05-05T07:18:23.483Z,15.90
2023-05-05T07:20:51.950Z,16.00
2023-05-05T07:23:24.724Z,16.30
2023-05-05T07:25:56.731Z,16.90
2023-05-05T07:28:25.113Z,16.90
2023-05-05T07:30:53.287Z,16.80
2023-05-05T07:33:23.722Z,16.50
2023-05-05T07:35:51.959Z,16.80
2023-05-05T07:38:20.637Z,16.60
2023-05-05T07:40:48.883Z,16.50
2023-05-05T07:43:18.508Z,17.40
2023-05-05T07:45:47.453Z,18.00
2023-05-05T07:48:15.713Z,18.10
2023-05-05T07:50:47.272Z,18.40
2023-05-05T07:53:19.196Z,18.50
2023-05-05T07:55:52.923Z,18.60
2023-05-05T07:58:22.825Z,18.50
2023-05-05T08:00:51.510Z,18.90
2023-05-05T08:03:24.872Z,18.90
2023-05-05T08:05:58.739Z,19.60
2023-05-05T08:08:29.601Z,19.80
2023-05-05T08:11:03.668Z,19.30
2023-05-05T08:13:35.629Z,19.70
2023-05-05T08:16:13.143Z,19.70
2023-05-05T08:18:44.186Z,19.60
2023-05-05T08:21:18.179Z,20.10
2023-05-05T08:23:47.846Z,20.60
2023-05-05T08:26:18.031Z,20.60
2023-05-05T08:28:50.447Z,21.00
2023-05-05T08:31:20.858Z,20.20
2023-05-05T08:33:52.257Z,20.00
2023-05-05T08:36:20.789Z,19.10
2023-05-05T08:38:51.146Z,19.90
2023-05-05T08:41:22.677Z,20.20
2023-05-05T08:43:52.525Z,19.80
2023-05-05T08:46:21.462Z,19.50
2023-05-05T08:48:50.891Z,19.40
2023-05-05T08:51:22.680Z,19.50
2023-05-05T08:54:00.141Z,19.50
2023-05-05T08:56:42.281Z,19.80
2023-05-05T08:59:37.783Z,19.90
2023-05-05T09:02:10.509Z,19.70
2023-05-05T09:04:43.154Z,19.50
2023-05-05T09:07:18.619Z,18.90
2023-05-05T09:09:52.965Z,18.80
2023-05-05T09:12:23.056Z,18.50
2023-05-05T09:14:53.026Z,18.10
2023-05-05T09:17:26.379Z,18.30
2023-05-05T09:20:04.342Z,18.20
2023-05-05T09:22:38.031Z,18.50
2023-05-05T09:25:07.821Z,18.30
2023-05-05T09:27:42.211Z,18.10
2023-05-05T09:30:18.366Z,18.30
2023-05-05T09:32:49.001Z,18.70
2023-05-05T09:35:21.617Z,18.60
2023-05-05T09:37:50.257Z,18.80
2023-05-05T09:40:22.992Z,19.00
2023-05-05T09:43:03.124Z,19.10
2023-05-05T09:45:38.439Z,18.20
2023-05-05T09:48:26.493Z,18.40
2023-05-05T09:51:00.587Z,18.70
2023-05-05T09:53:40.700Z,18.40
2023-05-05T09:56:11.787Z,18.20
2023-05-05T09:58:40.286Z,17.70
2023-05-05T10:01:23.221Z,17.40
2023-05-05T10:03:52.887Z,17.30
2023-05-05T10:06:22.029Z,17.10
2023-05-05T10:09:02.304Z,17.50
2023-05-05T10:11:30.889Z,17.60
2023-05-05T10:13:59.437Z,17.80
2023-05-05T10:16:31.216Z,18.00
2023-05-05T10:19:03.437Z,17.80
2023-05-05T10:21:37.028Z,17.80
2023-05-05T10:24:10.832Z,17.90
2023-05-05T10:26:43.057Z,18.30
2023-05-05T10:29:18.122Z,18.70
2023-05-05T10:31:53.999Z,18.70
2023-05-05T10:34:27.160Z,18.30
2023-05-05T10:36:59.834Z,18.00
2023-05-05T10:39:28.724Z,18.50
2023-05-05T10:42:00.143Z,18.40
2023-05-05T10:44:31.232Z,18.30
2023-05-05T10:47:01.779Z,17.80
2023-05-05T10:49:37.213Z,17.20
2023-05-05T10:52:15.130Z,16.90
2023-05-05T10:54:48.364Z,16.60
2023-05-05T10:57:19.893Z,16.50
2023-05-05T10:59:48.070Z,17.00
2023-05-05T11:02:30.289Z,17.40
2023-05-05T11:05:21.583Z,17.60
2023-05-05T11:07:51.118Z,17.70
2023-05-05T11:10:21.183Z,17.60
2023-05-05T11:13:21.236Z,17.90
2023-05-05T11:15:52.194Z,17.90
2023-05-05T11:18:36.669Z,17.90
2023-05-05T11:21:15.713Z,17.90
2023-05-05T11:23:45.935Z,17.60
2023-05-05T11:26:15.377Z,17.40
2023-05-05T11:29:02.380Z,17.30
2023-05-05T11:31:33.216Z,17.40
2023-05-05T11:34:31.280Z,17.50
2023-05-05T11:37:03.786Z,17.60
2023-05-05T11:39:43.706Z,17.60
2023-05-05T11:42:25.120Z,17.60
2023-05-05T11:44:54.250Z,17.30
2023-05-05T11:47:32.964Z,17.40
2023-05-05T11:50:21.453Z,17.10
2023-05-05T11:52:49.892Z,17.00
2023-05-05T11:55:24.301Z,16.90
2023-05-05T11:57:52.769Z,16.90
2023-05-05T12:00:21.832Z,17.00
2023-05-05T12:02:58.251Z,16.80
2023-05-05T12:05:28.168Z,16.40
2023-05-05T12:07:59.979Z,16.30
2023-05-05T12:10:28.881Z,16.40
2023-05-05T12:12:57.272Z,16.40
2023-05-05T12:15:33.329Z,16.50
2023-05-05T12:18:03.060Z,16.50
2023-05-05T12:20:35.101Z,16.40
2023-05-05T12:23:04.407Z,16.40
2023-05-05T12:25:40.611Z,16.40
2023-05-05T12:28:09.715Z,16.50
2023-05-05T12:30:38.130Z,16.50
2023-05-05T12:33:07.999Z,16.70
2023-05-05T12:35:41.694Z,16.80
2023-05-05T12:38:12.919Z,16.60
2023-05-05T12:40:45.970Z,16.10
2023-05-05T12:43:28.797Z,16.30
2023-05-05T12:46:05.478Z,16.40
2023-05-05T12:48:39.449Z,16.40
2023-05-05T12:51:18.415Z,16.20
2023-05-05T12:53:48.087Z,16.10
2023-05-05T12:56:37.118Z,16.30
2023-05-05T12:59:07.741Z,16.30
2023-05-05T13:01:36.746Z,16.40
2023-05-05T13:04:13.286Z,16.30
2023-05-05T13:06:45.007Z,16.30
2023-05-05T13:09:24.724Z,15.90
2023-05-05T13:11:53.501Z,15.80
2023-05-05T13:14:23.056Z,15.80
2023-05-05T13:16:51.438Z,15.70
2023-05-05T13:19:19.625Z,16.00
2023-05-05T13:21:49.246Z,15.80
2023-05-05T13:26:49.620Z,15.70
2023-05-05T13:29:18.255Z,15.70
2023-05-05T13:31:47.350Z,15.70
2023-05-05T13:34:16.100Z,15.80
2023-05-05T13:36:44.778Z,15.80
2023-05-05T13:39:14.893Z,15.60
2023-05-05T13:41:44.802Z,15.50
2023-05-05T13:44:14.570Z,15.40
2023-05-05T13:46:43.843Z,15.30
2023-05-05T13:49:12.516Z,15.40
2023-05-05T13:51:41.316Z,15.50
2023-05-05T13:54:10.594Z,15.60
2023-05-05T13:56:40.795Z,15.40
2023-05-05T13:59:09.450Z,15.30
2023-05-05T14:01:38.441Z,15.20
2023-05-05T14:04:07.381Z,15.00
2023-05-05T14:06:36.327Z,14.90
2023-05-05T14:09:06.487Z,14.70
2023-05-05T14:11:35.389Z,14.70
2023-05-05T14:14:06.375Z,14.50
2023-05-05T14:16:35.145Z,14.60
2023-05-05T14:19:03.910Z,14.50
2023-05-05T14:21:35.964Z,14.60
2023-05-05T14:24:05.326Z,14.70
2023-05-05T14:26:34.616Z,14.80
2023-05-05T14:29:11.967Z,14.80
2023-05-05T14:31:42.380Z,15.00
2023-05-05T14:34:17.398Z,15.00
2023-05-05T14:36:47.779Z,15.00
2023-05-05T14:39:16.459Z,15.00
2023-05-05T14:41:48.049Z,15.00
2023-05-05T14:44:18.082Z,15.10
2023-05-05T14:46:51.863Z,15.00
2023-05-05T14:49:23.280Z,14.80
2023-05-05T14:51:56.909Z,14.70
2023-05-05T14:54:28.993Z,14.50
2023-05-05T14:56:58.427Z,14.40
2023-05-05T14:59:40.546Z,14.30
2023-05-05T15:02:09.309Z,14.30
2023-05-05T15:04:37.657Z,14.20
2023-05-05T15:07:06.032Z,14.20
2023-05-05T15:09:34.225Z,14.10
2023-05-05T15:12:02.421Z,14.10
2023-05-05T15:14:32.007Z,14.10
2023-05-05T15:17:00.178Z,14.10
2023-05-05T15:19:28.410Z,14.10
2023-05-05T15:21:56.590Z,14.10
2023-05-05T15:24:24.747Z,14.10
2023-05-05T15:26:53.034Z,14.00
2023-05-05T15:29:21.318Z,14.00
2023-05-05T15:31:50.952Z,14.00
2023-05-05T15:34:19.107Z,14.10
2023-05-05T15:36:47.247Z,14.10
2023-05-05T15:39:15.416Z,14.10
2023-05-05T15:41:43.623Z,14.00
2023-05-05T15:44:13.510Z,14.00
2023-05-05T15:46:41.830Z,13.90
2023-05-05T15:49:11.566Z,14.00
2023-05-05T15:51:39.963Z,13.90
2023-05-05T15:54:08.212Z,13.80
2023-05-05T15:56:36.425Z,13.90
2023-05-05T15:59:04.660Z,13.90
2023-05-05T16:01:36.296Z,13.80
2023-05-05T16:04:04.865Z,13.70
2023-05-05T16:06:34.431Z,13.50
2023-05-05T16:09:02.589Z,13.60
2023-05-05T16:11:30.902Z,13.60
2023-05-05T16:13:59.165Z,13.50
2023-05-05T16:16:27.309Z,13.60
2023-05-05T16:18:55.686Z,13.60
2023-05-05T16:21:24.024Z,13.60
2023-05-05T16:23:53.635Z,13.40
2023-05-05T16:26:21.843Z,13.40
2023-05-05T16:28:50.283Z,13.40
2023-05-05T16:31:18.569Z,13.30
2023-05-05T16:33:46.802Z,13.20
2023-05-05T16:36:17.208Z,13.00
2023-05-05T16:38:47.356Z,13.00
2023-05-05T16:41:23.800Z,12.90
2023-05-05T16:43:54.169Z,12.90
2023-05-05T16:46:27.073Z,12.80
2023-05-05T16:49:02.950Z,12.70
2023-05-05T16:51:37.526Z,12.70
2023-05-05T16:54:07.900Z,12.60
2023-05-05T16:56:38.198Z,12.60
2023-05-05T16:59:08.701Z,12.50
2023-05-05T17:01:39.766Z,12.50
2023-05-05T17:04:14.406Z,12.40
2023-05-05T17:06:56.291Z,12.30
2023-05-05T17:09:27.058Z,12.30
2023-05-05T17:11:58.930Z,12.20
2023-05-05T17:14:41.281Z,12.20
2023-05-05T17:17:18.074Z,12.10
2023-05-05T17:19:50.512Z,12.10
2023-05-05T17:22:20.284Z,11.90
2023-05-05T17:24:48.781Z,11.80
2023-05-05T17:27:24.168Z,11.80
2023-05-05T17:29:53.869Z,11.70
2023-05-05T17:32:23.590Z,11.60
2023-05-05T17:34:58.399Z,11.60
2023-05-05T17:37:38.400Z,11.50
2023-05-05T17:40:11.479Z,11.40
2023-05-05T17:42:47.863Z,11.40
2023-05-05T17:45:19.600Z,11.30
2023-05-05T17:47:51.650Z,11.30
2023-05-05T17:50:20.642Z,11.20
2023-05-05T17:52:56.349Z,11.10
2023-05-05T17:55:31.338Z,11.10
2023-05-05T17:58:06.054Z,11.00
2023-05-05T18:00:38.699Z,10.90
2023-05-05T18:03:23.199Z,10.80
2023-05-05T18:05:51.837Z,10.70
2023-05-05T18:08:25.561Z,10.70
2023-05-05T18:10:57.400Z,10.60
2023-05-05T18:13:37.720Z,10.50
2023-05-05T18:16:13.279Z,10.40
2023-05-05T18:18:43.586Z,10.30
2023-05-05T18:21:17.776Z,10.30
2023-05-05T18:24:11.672Z,10.20
2023-05-05T18:26:54.346Z,10.10
2023-05-05T18:29:24.650Z,10.10
2023-05-05T18:32:13.521Z,10.00
2023-05-05T18:34:48.068Z,9.90
2023-05-05T18:37:21.313Z,9.80
2023-05-05T18:40:14.293Z,9.70
2023-05-05T18:42:54.567Z,9.70
2023-05-05T18:45:31.319Z,9.70
2023-05-05T18:48:16.134Z,9.60
2023-05-05T18:50:50.205Z,9.60
2023-05-05T18:53:35.456Z,9.50
2023-05-05T18:56:05.369Z,9.40
2023-05-05T18:58:37.450Z,9.40
2023-05-05T19:01:08.048Z,9.30
2023-05-05T19:03:52.997Z,9.40
2023-05-05T19:06:34.173Z,9.30
2023-05-05T19:09:07.165Z,9.30
2023-05-05T19:11:45.218Z,9.30
2023-05-05T19:14:25.171Z,9.30
2023-05-05T19:16:59.229Z,9.40
2023-05-05T19:19:31.857Z,9.30
2023-05-05T19:22:03.590Z,9.40
2023-05-05T19:24:41.033Z,9.40
2023-05-05T19:27:24.538Z,9.40
2023-05-05T19:33:44.758Z,9.40
2023-05-05T19:36:22.491Z,9.30
2023-05-05T19:39:06.836Z,9.30
2023-05-05T19:41:55.530Z,9.30
2023-05-05T19:44:59.032Z,9.20
2023-05-05T19:47:33.452Z,9.20
2023-05-05T19:50:18.066Z,9.20
2023-05-05T19:53:10.305Z,9.10
2023-05-05T19:55:49.176Z,9.10
2023-05-05T19:58:21.952Z,9.20
2023-05-05T20:00:56.835Z,9.10
2023-05-05T20:03:39.392Z,9.10
2023-05-05T20:06:13.734Z,9.10
2023-05-05T20:08:47.711Z,9.00
2023-05-05T20:11:17.356Z,9.10
2023-05-05T20:13:54.541Z,9.00
2023-05-05T20:16:26.872Z,9.00
2023-05-05T20:19:07.514Z,9.00
2023-05-05T20:21:44.614Z,9.00
2023-05-05T20:24:21.661Z,9.00
2023-05-05T20:27:00.505Z,9.10
2023-05-05T20:29:41.990Z,9.00
2023-05-05T20:32:27.793Z,9.00
2023-05-05T20:35:15.156Z,9.00
2023-05-05T20:37:56.285Z,9.00
2023-05-05T20:40:32.841Z,9.10
2023-05-05T20:43:10.609Z,9.00
2023-05-05T20:45:41.419Z,9.00
2023-05-05T20:48:15.914Z,9.00
2023-05-05T20:51:03.035Z,9.00
2023-05-05T20:53:40.095Z,8.90
2023-05-05T20:56:11.598Z,8.90
2023-05-05T20:58:51.990Z,8.90
2023-05-05T21:01:46.922Z,8.90
2023-05-05T21:04:17.804Z,8.90
2023-05-05T21:06:49.761Z,8.90
2023-05-05T21:09:22.077Z,8.90
2023-05-05T21:11:50.653Z,8.90
2023-05-05T21:14:23.231Z,8.90
2023-05-05T21:16:53.362Z,8.80
2023-05-05T21:19:22.637Z,8.80
2023-05-05T21:21:51.261Z,8.70
2023-05-05T21:24:21.624Z,8.60
2023-05-05T21:26:57.261Z,8.70
2023-05-05T21:29:26.087Z,8.60
2023-05-05T21:31:56.778Z,8.50
2023-05-05T21:34:25.219Z,8.50
2023-05-05T21:36:53.667Z,8.50
2023-05-05T21:39:25.385Z,8.50
2023-05-05T21:41:55.036Z,8.40
2023-05-05T21:44:25.601Z,8.40
2023-05-05T21:46:59.899Z,8.40
2023-05-05T21:49:28.344Z,8.40
2023-05-05T21:51:58.775Z,8.40
2023-05-05T21:54:29.877Z,8.40
2023-05-05T21:56:58.351Z,8.30
2023-05-05T21:59:28.035Z,8.30
2023-05-05T22:01:57.934Z,8.30
2023-05-05T22:04:26.553Z,8.20
2023-05-05T22:06:55.180Z,8.20
2023-05-05T22:09:26.573Z,8.20
2023-05-05T22:11:58.856Z,8.10
2023-05-05T22:14:36.787Z,8.10
2023-05-05T22:17:07.203Z,8.10
2023-05-05T22:19:39.328Z,8.10
2023-05-05T22:22:07.812Z,8.10
2023-05-05T22:24:44.586Z,8.10
2023-05-05T22:27:17.480Z,8.10
2023-05-05T22:29:49.790Z,8.00
2023-05-05T22:32:28.381Z,8.10
2023-05-05T22:34:56.954Z,8.10
2023-05-05T22:37:25.530Z,8.00
2023-05-05T22:39:58.131Z,8.00
2023-05-05T22:42:30.432Z,8.00
2023-05-05T22:44:58.993Z,8.00
2023-05-05T22:47:29.182Z,8.00
2023-05-05T22:49:58.223Z,7.90
2023-05-05T22:52:29.089Z,8.00
2023-05-05T22:54:59.106Z,7.90
2023-05-05T22:57:29.086Z,7.90
2023-05-05T22:59:57.712Z,7.80
2023-05-05T23:02:28.089Z,7.80
2023-05-05T23:04:56.566Z,7.70
2023-05-05T23:07:26.862Z,7.70
2023-05-05T23:09:55.371Z,7.70
2023-05-05T23:12:27.436Z,7.60
2023-05-05T23:15:00.162Z,7.60
2023-05-05T23:17:28.786Z,7.60
2023-05-05T23:19:58.672Z,7.50
2023-05-05T23:22:27.197Z,7.50
2023-05-05T23:24:55.701Z,7.50
2023-05-05T23:27:27.239Z,7.40
2023-05-05T23:29:59.461Z,7.40
2023-05-05T23:32:27.986Z,7.40
2023-05-05T23:34:58.533Z,7.30
2023-05-05T23:37:26.836Z,7.20
2023-05-05T23:40:00.807Z,7.20
2023-05-05T23:42:31.348Z,7.10
2023-05-05T23:45:03.559Z,7.20
2023-05-05T23:47:32.349Z,7.10
2023-05-05T23:50:00.924Z,7.10
2023-05-05T23:52:35.571Z,7.00
2023-05-05T23:55:05.864Z,7.00
2023-05-05T23:57:35.356Z,7.00
